sensor_id;sensor_type;location;lat;lon;timestamp;P1;durP1;ratioP1;P2;durP2;ratioP2
18194;SDS011;9223;50.988;3.162;2022-12-18T00:04:27;56.00;;;23.57;;
18194;SDS011;9223;50.988;3.162;2022-12-18T00:10:31;58.87;;;23.60;;
18194;SDS011;9223;50.988;3.162;2022-12-18T00:16:36;55.33;;;24.50;;
18194;SDS011;9223;50.988;3.162;2022-12-18T00:22:39;55.70;;;23.87;;
18194;SDS011;9223;50.988;3.162;2022-12-18T00:28:43;55.87;;;23.47;;
18194;SDS011;9223;50.988;3.162;2022-12-18T00:34:48;54.03;;;23.53;;
18194;SDS011;9223;50.988;3.162;2022-12-18T00:40:53;54.43;;;24.43;;
18194;SDS011;9223;50.988;3.162;2022-12-18T00:46:56;47.90;;;21.70;;
18194;SDS011;9223;50.988;3.162;2022-12-18T00:53:01;48.60;;;21.30;;
18194;SDS011;9223;50.988;3.162;2022-12-18T00:59:05;49.77;;;21.33;;
18194;SDS011;9223;50.988;3.162;2022-12-18T01:05:09;50.03;;;22.93;;
18194;SDS011;9223;50.988;3.162;2022-12-18T01:11:15;45.57;;;20.80;;
18194;SDS011;9223;50.988;3.162;2022-12-18T01:17:19;42.47;;;22.00;;
18194;SDS011;9223;50.988;3.162;2022-12-18T01:23:22;44.27;;;21.77;;
18194;SDS011;9223;50.988;3.162;2022-12-18T01:29:27;44.77;;;21.17;;
18194;SDS011;9223;50.988;3.162;2022-12-18T01:35:30;40.03;;;20.83;;
18194;SDS011;9223;50.988;3.162;2022-12-18T01:41:34;42.70;;;20.73;;
18194;SDS011;9223;50.988;3.162;2022-12-18T01:47:54;39.50;;;20.67;;
18194;SDS011;9223;50.988;3.162;2022-12-18T01:53:59;37.13;;;19.80;;
18194;SDS011;9223;50.988;3.162;2022-12-18T02:00:03;45.87;;;22.80;;
18194;SDS011;9223;50.988;3.162;2022-12-18T02:06:09;41.57;;;21.07;;
18194;SDS011;9223;50.988;3.162;2022-12-18T02:12:16;47.60;;;22.87;;
18194;SDS011;9223;50.988;3.162;2022-12-18T02:18:21;50.83;;;24.07;;
18194;SDS011;9223;50.988;3.162;2022-12-18T02:24:29;42.97;;;21.13;;
18194;SDS011;9223;50.988;3.162;2022-12-18T02:30:38;44.63;;;21.80;;
18194;SDS011;9223;50.988;3.162;2022-12-18T02:36:42;49.23;;;22.83;;
18194;SDS011;9223;50.988;3.162;2022-12-18T02:42:47;47.83;;;22.37;;
18194;SDS011;9223;50.988;3.162;2022-12-18T02:48:52;46.83;;;21.30;;
18194;SDS011;9223;50.988;3.162;2022-12-18T02:55:00;43.97;;;22.33;;
18194;SDS011;9223;50.988;3.162;2022-12-18T03:01:09;47.83;;;24.07;;
18194;SDS011;9223;50.988;3.162;2022-12-18T03:07:18;48.93;;;24.20;;
18194;SDS011;9223;50.988;3.162;2022-12-18T03:13:25;44.53;;;23.83;;
18194;SDS011;9223;50.988;3.162;2022-12-18T03:19:32;41.03;;;22.13;;
18194;SDS011;9223;50.988;3.162;2022-12-18T03:25:38;40.67;;;21.37;;
18194;SDS011;9223;50.988;3.162;2022-12-18T03:31:42;44.17;;;22.27;;
18194;SDS011;9223;50.988;3.162;2022-12-18T03:37:48;37.93;;;21.57;;
18194;SDS011;9223;50.988;3.162;2022-12-18T03:43:54;36.10;;;19.53;;
18194;SDS011;9223;50.988;3.162;2022-12-18T03:50:03;38.63;;;19.73;;
18194;SDS011;9223;50.988;3.162;2022-12-18T03:56:13;35.60;;;19.33;;
18194;SDS011;9223;50.988;3.162;2022-12-18T04:02:19;36.20;;;19.30;;
18194;SDS011;9223;50.988;3.162;2022-12-18T04:08:24;41.07;;;20.37;;
18194;SDS011;9223;50.988;3.162;2022-12-18T04:14:28;38.60;;;20.40;;
18194;SDS011;9223;50.988;3.162;2022-12-18T04:20:32;31.67;;;18.07;;
18194;SDS011;9223;50.988;3.162;2022-12-18T04:26:36;34.53;;;18.57;;
18194;SDS011;9223;50.988;3.162;2022-12-18T04:32:40;39.33;;;21.23;;
18194;SDS011;9223;50.988;3.162;2022-12-18T04:38:53;38.70;;;20.03;;
18194;SDS011;9223;50.988;3.162;2022-12-18T04:44:57;39.30;;;19.70;;
18194;SDS011;9223;50.988;3.162;2022-12-18T04:51:00;37.37;;;18.30;;
18194;SDS011;9223;50.988;3.162;2022-12-18T04:57:05;33.27;;;17.77;;
18194;SDS011;9223;50.988;3.162;2022-12-18T05:03:09;34.50;;;18.20;;
18194;SDS011;9223;50.988;3.162;2022-12-18T05:09:13;31.77;;;18.63;;
18194;SDS011;9223;50.988;3.162;2022-12-18T05:15:18;31.90;;;18.43;;
18194;SDS011;9223;50.988;3.162;2022-12-18T05:21:21;28.97;;;17.37;;
18194;SDS011;9223;50.988;3.162;2022-12-18T05:27:25;33.90;;;18.77;;
18194;SDS011;9223;50.988;3.162;2022-12-18T05:33:30;29.80;;;17.30;;
18194;SDS011;9223;50.988;3.162;2022-12-18T05:39:34;29.40;;;17.27;;
18194;SDS011;9223;50.988;3.162;2022-12-18T05:45:37;29.30;;;17.27;;
18194;SDS011;9223;50.988;3.162;2022-12-18T05:51:43;30.97;;;18.00;;
18194;SDS011;9223;50.988;3.162;2022-12-18T05:57:47;33.03;;;17.40;;
18194;SDS011;9223;50.988;3.162;2022-12-18T06:03:50;27.80;;;17.37;;
18194;SDS011;9223;50.988;3.162;2022-12-18T06:09:55;30.20;;;16.27;;
18194;SDS011;9223;50.988;3.162;2022-12-18T06:16:01;31.33;;;16.67;;
18194;SDS011;9223;50.988;3.162;2022-12-18T06:22:04;26.20;;;15.63;;
18194;SDS011;9223;50.988;3.162;2022-12-18T06:28:09;32.03;;;18.03;;
18194;SDS011;9223;50.988;3.162;2022-12-18T06:34:13;28.73;;;16.60;;
18194;SDS011;9223;50.988;3.162;2022-12-18T06:40:16;28.97;;;16.07;;
18194;SDS011;9223;50.988;3.162;2022-12-18T06:46:21;31.87;;;17.40;;
18194;SDS011;9223;50.988;3.162;2022-12-18T06:52:25;32.37;;;17.33;;
18194;SDS011;9223;50.988;3.162;2022-12-18T06:58:28;24.90;;;15.40;;
18194;SDS011;9223;50.988;3.162;2022-12-18T07:04:33;25.67;;;15.20;;
18194;SDS011;9223;50.988;3.162;2022-12-18T07:10:40;25.57;;;15.73;;
18194;SDS011;9223;50.988;3.162;2022-12-18T07:16:48;22.67;;;13.43;;
18194;SDS011;9223;50.988;3.162;2022-12-18T07:22:53;27.63;;;13.90;;
18194;SDS011;9223;50.988;3.162;2022-12-18T07:28:57;22.60;;;13.77;;
18194;SDS011;9223;50.988;3.162;2022-12-18T07:35:01;24.43;;;12.73;;
18194;SDS011;9223;50.988;3.162;2022-12-18T07:41:06;21.10;;;12.47;;
18194;SDS011;9223;50.988;3.162;2022-12-18T07:47:09;23.60;;;12.30;;
18194;SDS011;9223;50.988;3.162;2022-12-18T07:53:13;17.70;;;11.17;;
18194;SDS011;9223;50.988;3.162;2022-12-18T07:59:18;19.27;;;11.97;;
18194;SDS011;9223;50.988;3.162;2022-12-18T08:05:21;19.50;;;11.23;;
18194;SDS011;9223;50.988;3.162;2022-12-18T08:11:25;26.27;;;16.70;;
18194;SDS011;9223;50.988;3.162;2022-12-18T08:17:30;18.80;;;11.80;;
18194;SDS011;9223;50.988;3.162;2022-12-18T08:23:34;19.97;;;12.70;;
18194;SDS011;9223;50.988;3.162;2022-12-18T08:29:43;18.23;;;11.80;;
18194;SDS011;9223;50.988;3.162;2022-12-18T08:35:48;21.03;;;12.63;;
18194;SDS011;9223;50.988;3.162;2022-12-18T08:41:51;17.03;;;9.33;;
18194;SDS011;9223;50.988;3.162;2022-12-18T08:48:12;14.37;;;9.47;;
18194;SDS011;9223;50.988;3.162;2022-12-18T08:54:24;18.87;;;9.53;;
18194;SDS011;9223;50.988;3.162;2022-12-18T09:00:27;15.73;;;10.27;;
18194;SDS011;9223;50.988;3.162;2022-12-18T09:06:31;16.23;;;10.83;;
18194;SDS011;9223;50.988;3.162;2022-12-18T09:12:36;18.43;;;10.53;;
18194;SDS011;9223;50.988;3.162;2022-12-18T09:18:40;18.07;;;10.90;;
18194;SDS011;9223;50.988;3.162;2022-12-18T09:24:44;21.87;;;10.97;;
18194;SDS011;9223;50.988;3.162;2022-12-18T09:30:49;18.60;;;10.50;;
18194;SDS011;9223;50.988;3.162;2022-12-18T09:36:52;18.33;;;11.07;;
18194;SDS011;9223;50.988;3.162;2022-12-18T09:42:57;17.17;;;10.67;;
18194;SDS011;9223;50.988;3.162;2022-12-18T09:49:06;19.40;;;11.20;;
18194;SDS011;9223;50.988;3.162;2022-12-18T09:55:14;18.33;;;11.40;;
18194;SDS011;9223;50.988;3.162;2022-12-18T10:01:21;22.57;;;12.60;;
18194;SDS011;9223;50.988;3.162;2022-12-18T10:07:28;19.30;;;12.10;;
18194;SDS011;9223;50.988;3.162;2022-12-18T10:13:33;20.67;;;11.50;;
18194;SDS011;9223;50.988;3.162;2022-12-18T10:19:43;27.07;;;15.30;;
18194;SDS011;9223;50.988;3.162;2022-12-18T10:25:58;37.67;;;19.33;;
18194;SDS011;9223;50.988;3.162;2022-12-18T10:32:02;89.57;;;31.93;;
18194;SDS011;9223;50.988;3.162;2022-12-18T10:38:07;156.20;;;52.03;;
18194;SDS011;9223;50.988;3.162;2022-12-18T10:44:24;29.33;;;21.93;;
18194;SDS011;9223;50.988;3.162;2022-12-18T10:50:30;24.20;;;15.13;;
18194;SDS011;9223;50.988;3.162;2022-12-18T10:56:55;25.63;;;15.20;;
18194;SDS011;9223;50.988;3.162;2022-12-18T11:03:29;23.93;;;14.70;;
18194;SDS011;9223;50.988;3.162;2022-12-18T11:09:33;27.67;;;14.70;;
18194;SDS011;9223;50.988;3.162;2022-12-18T11:15:37;26.73;;;15.13;;
18194;SDS011;9223;50.988;3.162;2022-12-18T11:21:45;24.03;;;15.30;;
18194;SDS011;9223;50.988;3.162;2022-12-18T11:27:48;24.23;;;15.10;;
18194;SDS011;9223;50.988;3.162;2022-12-18T11:33:54;26.50;;;15.97;;
18194;SDS011;9223;50.988;3.162;2022-12-18T11:40:22;45.33;;;24.10;;
18194;SDS011;9223;50.988;3.162;2022-12-18T11:46:30;28.30;;;17.07;;
18194;SDS011;9223;50.988;3.162;2022-12-18T11:52:36;29.77;;;17.97;;
18194;SDS011;9223;50.988;3.162;2022-12-18T11:58:47;28.97;;;17.40;;
18194;SDS011;9223;50.988;3.162;2022-12-18T12:11:10;30.27;;;17.37;;
18194;SDS011;9223;50.988;3.162;2022-12-18T12:17:20;31.30;;;17.90;;
18194;SDS011;9223;50.988;3.162;2022-12-18T12:23:30;29.77;;;16.80;;
18194;SDS011;9223;50.988;3.162;2022-12-18T12:29:39;29.60;;;17.53;;
18194;SDS011;9223;50.988;3.162;2022-12-18T12:35:50;26.87;;;14.63;;
18194;SDS011;9223;50.988;3.162;2022-12-18T12:41:55;25.30;;;13.17;;
18194;SDS011;9223;50.988;3.162;2022-12-18T12:48:20;34.00;;;17.80;;
18194;SDS011;9223;50.988;3.162;2022-12-18T12:54:26;30.20;;;18.30;;
18194;SDS011;9223;50.988;3.162;2022-12-18T13:00:30;25.53;;;15.63;;
18194;SDS011;9223;50.988;3.162;2022-12-18T13:06:42;32.17;;;17.70;;
18194;SDS011;9223;50.988;3.162;2022-12-18T13:12:55;29.60;;;15.77;;
18194;SDS011;9223;50.988;3.162;2022-12-18T13:18:59;29.43;;;16.87;;
18194;SDS011;9223;50.988;3.162;2022-12-18T13:25:03;29.73;;;17.90;;
18194;SDS011;9223;50.988;3.162;2022-12-18T13:31:08;33.33;;;18.17;;
18194;SDS011;9223;50.988;3.162;2022-12-18T13:43:35;34.80;;;17.83;;
18194;SDS011;9223;50.988;3.162;2022-12-18T13:49:44;32.77;;;18.00;;
18194;SDS011;9223;50.988;3.162;2022-12-18T13:55:47;29.50;;;15.93;;
18194;SDS011;9223;50.988;3.162;2022-12-18T14:01:53;31.30;;;17.57;;
18194;SDS011;9223;50.988;3.162;2022-12-18T14:08:00;40.33;;;20.87;;
18194;SDS011;9223;50.988;3.162;2022-12-18T14:14:04;33.40;;;18.80;;
18194;SDS011;9223;50.988;3.162;2022-12-18T14:20:12;31.67;;;16.37;;
18194;SDS011;9223;50.988;3.162;2022-12-18T14:26:21;33.93;;;17.37;;
18194;SDS011;9223;50.988;3.162;2022-12-18T14:32:25;29.83;;;15.40;;
18194;SDS011;9223;50.988;3.162;2022-12-18T14:38:29;34.67;;;18.83;;
18194;SDS011;9223;50.988;3.162;2022-12-18T14:44:34;31.47;;;15.93;;
18194;SDS011;9223;50.988;3.162;2022-12-18T14:50:58;29.07;;;15.80;;
18194;SDS011;9223;50.988;3.162;2022-12-18T14:57:04;33.43;;;16.80;;
18194;SDS011;9223;50.988;3.162;2022-12-18T15:03:09;35.67;;;16.43;;
18194;SDS011;9223;50.988;3.162;2022-12-18T15:09:20;31.23;;;16.77;;
18194;SDS011;9223;50.988;3.162;2022-12-18T15:15:45;28.37;;;15.60;;
18194;SDS011;9223;50.988;3.162;2022-12-18T15:21:50;30.60;;;16.17;;
18194;SDS011;9223;50.988;3.162;2022-12-18T15:27:53;29.30;;;15.50;;
18194;SDS011;9223;50.988;3.162;2022-12-18T15:40:20;30.03;;;14.80;;
18194;SDS011;9223;50.988;3.162;2022-12-18T15:46:24;31.47;;;16.37;;
18194;SDS011;9223;50.988;3.162;2022-12-18T15:52:29;30.63;;;16.20;;
18194;SDS011;9223;50.988;3.162;2022-12-18T15:58:33;30.40;;;16.30;;
18194;SDS011;9223;50.988;3.162;2022-12-18T16:04:37;57.83;;;23.60;;
18194;SDS011;9223;50.988;3.162;2022-12-18T16:10:42;61.60;;;26.70;;
18194;SDS011;9223;50.988;3.162;2022-12-18T16:16:47;33.70;;;18.60;;
18194;SDS011;9223;50.988;3.162;2022-12-18T16:22:50;33.73;;;19.13;;
18194;SDS011;9223;50.988;3.162;2022-12-18T16:28:54;30.70;;;15.83;;
18194;SDS011;9223;50.988;3.162;2022-12-18T16:35:00;30.85;;;15.48;;
18194;SDS011;9223;50.988;3.162;2022-12-18T16:41:06;32.83;;;16.80;;
18194;SDS011;9223;50.988;3.162;2022-12-18T16:47:32;30.30;;;16.45;;
18194;SDS011;9223;50.988;3.162;2022-12-18T16:53:39;29.67;;;16.10;;
18194;SDS011;9223;50.988;3.162;2022-12-18T16:59:44;32.28;;;17.25;;
18194;SDS011;9223;50.988;3.162;2022-12-18T17:05:48;29.10;;;15.77;;
18194;SDS011;9223;50.988;3.162;2022-12-18T17:11:55;30.17;;;15.93;;
18194;SDS011;9223;50.988;3.162;2022-12-18T17:18:01;32.73;;;14.93;;
18194;SDS011;9223;50.988;3.162;2022-12-18T17:24:05;32.37;;;15.80;;
18194;SDS011;9223;50.988;3.162;2022-12-18T17:30:10;32.00;;;15.93;;
18194;SDS011;9223;50.988;3.162;2022-12-18T17:36:14;51.95;;;24.20;;
18194;SDS011;9223;50.988;3.162;2022-12-18T17:42:18;34.93;;;16.33;;
18194;SDS011;9223;50.988;3.162;2022-12-18T17:48:23;33.93;;;16.63;;
18194;SDS011;9223;50.988;3.162;2022-12-18T17:54:26;32.27;;;16.00;;
18194;SDS011;9223;50.988;3.162;2022-12-18T18:00:30;27.25;;;13.98;;
18194;SDS011;9223;50.988;3.162;2022-12-18T18:06:35;26.35;;;14.95;;
18194;SDS011;9223;50.988;3.162;2022-12-18T18:12:39;29.65;;;15.82;;
18194;SDS011;9223;50.988;3.162;2022-12-18T18:19:14;33.15;;;15.95;;
18194;SDS011;9223;50.988;3.162;2022-12-18T18:25:20;32.15;;;16.75;;
18194;SDS011;9223;50.988;3.162;2022-12-18T18:31:24;32.60;;;16.63;;
18194;SDS011;9223;50.988;3.162;2022-12-18T18:37:27;30.98;;;17.05;;
18194;SDS011;9223;50.988;3.162;2022-12-18T18:43:32;31.55;;;16.60;;
18194;SDS011;9223;50.988;3.162;2022-12-18T18:49:36;27.45;;;15.32;;
18194;SDS011;9223;50.988;3.162;2022-12-18T18:55:39;37.03;;;17.95;;
18194;SDS011;9223;50.988;3.162;2022-12-18T19:01:44;27.17;;;14.55;;
18194;SDS011;9223;50.988;3.162;2022-12-18T19:07:48;29.85;;;16.00;;
18194;SDS011;9223;50.988;3.162;2022-12-18T19:13:52;29.88;;;15.27;;
18194;SDS011;9223;50.988;3.162;2022-12-18T19:19:58;35.33;;;16.80;;
18194;SDS011;9223;50.988;3.162;2022-12-18T19:26:03;45.17;;;20.65;;
18194;SDS011;9223;50.988;3.162;2022-12-18T19:32:26;46.45;;;22.50;;
18194;SDS011;9223;50.988;3.162;2022-12-18T19:38:33;76.32;;;27.58;;
18194;SDS011;9223;50.988;3.162;2022-12-18T19:44:36;84.30;;;30.27;;
18194;SDS011;9223;50.988;3.162;2022-12-18T19:50:40;46.58;;;28.52;;
18194;SDS011;9223;50.988;3.162;2022-12-18T19:56:46;31.95;;;16.83;;
18194;SDS011;9223;50.988;3.162;2022-12-18T20:02:49;32.05;;;16.60;;
18194;SDS011;9223;50.988;3.162;2022-12-18T20:09:01;33.00;;;15.93;;
18194;SDS011;9223;50.988;3.162;2022-12-18T20:15:07;28.75;;;14.20;;
18194;SDS011;9223;50.988;3.162;2022-12-18T20:21:11;24.92;;;13.32;;
18194;SDS011;9223;50.988;3.162;2022-12-18T20:27:14;27.77;;;13.40;;
18194;SDS011;9223;50.988;3.162;2022-12-18T20:33:21;24.80;;;13.05;;
18194;SDS011;9223;50.988;3.162;2022-12-18T20:39:24;26.80;;;14.32;;
18194;SDS011;9223;50.988;3.162;2022-12-18T20:45:28;24.42;;;13.63;;
18194;SDS011;9223;50.988;3.162;2022-12-18T20:51:33;26.90;;;14.23;;
18194;SDS011;9223;50.988;3.162;2022-12-18T20:57:37;26.50;;;13.88;;
18194;SDS011;9223;50.988;3.162;2022-12-18T21:03:41;25.23;;;13.55;;
18194;SDS011;9223;50.988;3.162;2022-12-18T21:09:48;22.77;;;13.93;;
18194;SDS011;9223;50.988;3.162;2022-12-18T21:15:51;26.52;;;12.80;;
18194;SDS011;9223;50.988;3.162;2022-12-18T21:21:55;23.42;;;12.68;;
18194;SDS011;9223;50.988;3.162;2022-12-18T21:28:01;22.15;;;11.07;;
18194;SDS011;9223;50.988;3.162;2022-12-18T21:34:04;22.98;;;11.25;;
18194;SDS011;9223;50.988;3.162;2022-12-18T21:40:09;20.90;;;11.35;;
18194;SDS011;9223;50.988;3.162;2022-12-18T21:46:14;20.90;;;10.95;;
18194;SDS011;9223;50.988;3.162;2022-12-18T21:52:17;21.30;;;12.65;;
18194;SDS011;9223;50.988;3.162;2022-12-18T21:58:31;23.25;;;11.25;;
18194;SDS011;9223;50.988;3.162;2022-12-18T22:04:35;19.80;;;12.32;;
18194;SDS011;9223;50.988;3.162;2022-12-18T22:10:39;20.65;;;11.93;;
18194;SDS011;9223;50.988;3.162;2022-12-18T22:16:43;23.02;;;10.95;;
18194;SDS011;9223;50.988;3.162;2022-12-18T22:22:48;21.52;;;15.75;;
18194;SDS011;9223;50.988;3.162;2022-12-18T22:28:53;22.45;;;11.85;;
18194;SDS011;9223;50.988;3.162;2022-12-18T22:35:14;17.98;;;10.50;;
18194;SDS011;9223;50.988;3.162;2022-12-18T22:41:18;18.27;;;10.32;;
18194;SDS011;9223;50.988;3.162;2022-12-18T22:47:22;14.07;;;8.95;;
18194;SDS011;9223;50.988;3.162;2022-12-18T22:53:30;14.82;;;9.55;;
18194;SDS011;9223;50.988;3.162;2022-12-18T22:59:35;17.00;;;10.57;;
18194;SDS011;9223;50.988;3.162;2022-12-18T23:05:39;13.20;;;8.05;;
18194;SDS011;9223;50.988;3.162;2022-12-18T23:11:42;12.82;;;7.90;;
18194;SDS011;9223;50.988;3.162;2022-12-18T23:17:47;15.77;;;8.75;;
18194;SDS011;9223;50.988;3.162;2022-12-18T23:23:51;14.63;;;7.47;;
18194;SDS011;9223;50.988;3.162;2022-12-18T23:29:54;13.88;;;8.10;;
18194;SDS011;9223;50.988;3.162;2022-12-18T23:36:00;14.35;;;9.02;;
18194;SDS011;9223;50.988;3.162;2022-12-18T23:42:04;12.10;;;7.43;;
18194;SDS011;9223;50.988;3.162;2022-12-18T23:48:09;10.68;;;6.75;;
18194;SDS011;9223;50.988;3.162;2022-12-18T23:54:18;11.50;;;7.03;;
